TimeCST,TemperatureF,Dew PointF,Humidity,Sea Level PressureIn,VisibilityMPH,Wind Direction,Wind SpeedMPH,Gust SpeedMPH,PrecipitationIn,Events,Conditions,WindDirDegrees,DateUTC
12:58 AM,26.6,23.0,86,30.24,10.0,SSE,10.4,-,N/A,,Partly Cloudy,160,2013-12-11 06:58:00
2:58 AM,23.0,20.3,89,30.26,10.0,ESE,4.6,-,N/A,,Clear,110,2013-12-11 08:58:00
3:58 AM,19.2,16.9,91,30.28,10.0,ENE,5.8,-,N/A,,Clear,70,2013-12-11 09:58:00
4:58 AM,19.9,18.3,93,30.32,10.0,NNE,8.1,-,N/A,,Clear,30,2013-12-11 10:58:00
5:58 AM,20.8,18.9,92,30.35,10.0,NNE,8.1,-,N/A,,Clear,20,2013-12-11 11:58:00
6:58 AM,23.0,19.4,86,30.39,10.0,North,6.9,-,N/A,,Clear,360,2013-12-11 12:58:00
7:58 AM,26.1,20.8,81,30.43,10.0,North,18.4,-,N/A,,Clear,10,2013-12-11 13:58:00
8:58 AM,30.2,21.6,70,30.46,10.0,NNE,20.7,26.5,N/A,,Clear,20,2013-12-11 14:58:00
9:58 AM,31.5,22.1,68,30.52,10.0,NNE,20.7,28.8,N/A,,Clear,20,2013-12-11 15:58:00
10:58 AM,32.7,23.7,69,30.55,10.0,NNE,18.4,-,N/A,,Clear,30,2013-12-11 16:58:00
11:58 AM,33.6,24.8,70,30.56,10.0,NNE,17.3,25.3,N/A,,Partly Cloudy,20,2013-12-11 17:58:00
12:58 PM,35.6,26.6,70,30.54,10.0,NNE,20.7,27.6,N/A,,Partly Cloudy,20,2013-12-11 18:58:00
1:58 PM,37.2,27.3,67,30.55,10.0,NNE,16.1,25.3,N/A,,Clear,30,2013-12-11 19:58:00
2:58 PM,38.5,27.0,63,30.56,10.0,NNE,20.7,-,N/A,,Clear,20,2013-12-11 20:58:00
3:58 PM,37.9,26.6,64,30.58,10.0,NNE,17.3,-,N/A,,Clear,30,2013-12-11 21:58:00
4:58 PM,36.0,26.1,67,30.59,10.0,NNE,9.2,-,N/A,,Clear,20,2013-12-11 22:58:00
5:58 PM,29.7,25.0,83,30.60,10.0,North,8.1,-,N/A,,Clear,10,2013-12-11 23:58:00
6:58 PM,27.3,22.8,83,30.62,10.0,North,5.8,-,N/A,,Clear,10,2013-12-12 00:58:00
7:58 PM,26.2,22.6,86,30.64,10.0,North,9.2,-,N/A,,Clear,360,2013-12-12 01:58:00
8:58 PM,31.1,21.6,68,30.63,10.0,North,8.1,-,N/A,,Clear,360,2013-12-12 02:58:00
9:58 PM,27.0,20.1,75,30.64,10.0,NNE,6.9,-,N/A,,Clear,20,2013-12-12 03:58:00
10:58 PM,23.0,19.4,86,30.64,10.0,NNE,3.5,-,N/A,,Clear,20,2013-12-12 04:58:00
11:58 PM,22.5,18.3,84,30.65,10.0,NNE,6.9,-,N/A,,Clear,30,2013-12-12 05:58:00